EIN244H EIDW-EGJJ
Flight info
| Callsign | EIN244H |
|---|---|
| Flight time | 0h 53m |
| Altitude | 23000 |
| Route | PESIT2J PESIT DCT BAKUR N24 ADHAV DCT ABBEW N90 ENHEL N862 SKERY |
| Aircraft | A320/M-SDE3FGHIRWY/LB1 |
Departure
| Time | 2026-05-06 08:40 |
|---|---|
| Airport | Dublin Airport (EIDW) |
Arrival
| Time | 2026-05-06 09:34 |
|---|---|
| Airport | Jersey Airport (EGJJ) |
| Time | Latitude | Longitude | Altitude | Speed | Heading |
|---|---|---|---|---|---|
| 2026-05-06 08:20 | 53.42322 | -6.24258 | 217 ft | 0 kts | 316° |
| 2026-05-06 08:30 | 53.42315 | -6.24246 | 211 ft | 4 kts | 316° |
| 2026-05-06 08:30 | 53.42296 | -6.24214 | 212 ft | 4 kts | 315° |
| 2026-05-06 08:31 | 53.42277 | -6.24182 | 218 ft | 4 kts | 306° |
| 2026-05-06 08:31 | 53.42266 | -6.24145 | 215 ft | 4 kts | 267° |
| 2026-05-06 08:31 | 53.42272 | -6.24122 | 212 ft | 1 kts | 196° |
| 2026-05-06 08:34 | 53.42271 | -6.24123 | 212 ft | 2 kts | 196° |
| 2026-05-06 08:34 | 53.42205 | -6.24182 | 211 ft | 17 kts | 219° |
| 2026-05-06 08:35 | 53.42160 | -6.24358 | 211 ft | 18 kts | 274° |
| 2026-05-06 08:35 | 53.42173 | -6.24584 | 211 ft | 20 kts | 275° |
| 2026-05-06 08:35 | 53.42209 | -6.24757 | 211 ft | 13 kts | 342° |
| 2026-05-06 08:35 | 53.42310 | -6.24824 | 211 ft | 18 kts | 336° |
| 2026-05-06 08:36 | 53.42431 | -6.24911 | 214 ft | 20 kts | 338° |
| 2026-05-06 08:36 | 53.42566 | -6.25010 | 212 ft | 22 kts | 336° |
| 2026-05-06 08:36 | 53.42696 | -6.25108 | 212 ft | 16 kts | 323° |
| 2026-05-06 08:36 | 53.42782 | -6.25233 | 213 ft | 18 kts | 336° |
| 2026-05-06 08:37 | 53.42903 | -6.25322 | 214 ft | 20 kts | 337° |
| 2026-05-06 08:37 | 53.43037 | -6.25419 | 211 ft | 22 kts | 336° |
| 2026-05-06 08:37 | 53.43182 | -6.25524 | 215 ft | 24 kts | 337° |
| 2026-05-06 08:37 | 53.43327 | -6.25629 | 212 ft | 16 kts | 336° |
| 2026-05-06 08:38 | 53.43407 | -6.25569 | 211 ft | 17 kts | 89° |
| 2026-05-06 08:38 | 53.43397 | -6.25380 | 211 ft | 15 kts | 95° |
| 2026-05-06 08:38 | 53.43388 | -6.25210 | 213 ft | 14 kts | 95° |
| 2026-05-06 08:38 | 53.43379 | -6.25056 | 211 ft | 14 kts | 95° |
| 2026-05-06 08:39 | 53.43367 | -6.24827 | 211 ft | 23 kts | 97° |
| 2026-05-06 08:39 | 53.43376 | -6.24573 | 211 ft | 21 kts | 44° |
| 2026-05-06 08:39 | 53.43502 | -6.24558 | 213 ft | 15 kts | 342° |
| 2026-05-06 08:39 | 53.43533 | -6.24722 | 217 ft | 18 kts | 274° |
| 2026-05-06 08:40 | 53.43560 | -6.25217 | 211 ft | 79 kts | 275° |
| 2026-05-06 08:40 | 53.43631 | -6.26513 | 213 ft | 141 kts | 275° |
| 2026-05-06 08:40 | 53.43742 | -6.28352 | 512 ft | 165 kts | 278° |
| 2026-05-06 08:40 | 53.44174 | -6.30092 | 1271 ft | 163 kts | 308° |
| 2026-05-06 08:41 | 53.44884 | -6.31554 | 2113 ft | 161 kts | 309° |
| 2026-05-06 08:41 | 53.45601 | -6.33002 | 2821 ft | 162 kts | 311° |
| 2026-05-06 08:41 | 53.46347 | -6.34499 | 3376 ft | 173 kts | 306° |
| 2026-05-06 08:41 | 53.47054 | -6.36235 | 3877 ft | 188 kts | 301° |
| 2026-05-06 08:42 | 53.47794 | -6.38155 | 4335 ft | 203 kts | 306° |
| 2026-05-06 08:42 | 53.48685 | -6.40092 | 4862 ft | 219 kts | 309° |
| 2026-05-06 08:42 | 53.49644 | -6.42168 | 5516 ft | 231 kts | 305° |
| 2026-05-06 08:42 | 53.50550 | -6.44507 | 6135 ft | 250 kts | 301° |
| 2026-05-06 08:43 | 53.51096 | -6.47360 | 6692 ft | 267 kts | 270° |
| 2026-05-06 08:43 | 53.50656 | -6.50403 | 7545 ft | 274 kts | 241° |
| 2026-05-06 08:43 | 53.49348 | -6.52715 | 8465 ft | 279 kts | 211° |
| 2026-05-06 08:43 | 53.47482 | -6.53589 | 9393 ft | 287 kts | 180° |
| 2026-05-06 08:44 | 53.45502 | -6.52921 | 10248 ft | 295 kts | 166° |
| 2026-05-06 08:44 | 53.43453 | -6.51895 | 10594 ft | 320 kts | 164° |
| 2026-05-06 08:44 | 53.41272 | -6.50743 | 11121 ft | 334 kts | 164° |
| 2026-05-06 08:44 | 53.39040 | -6.49550 | 11885 ft | 340 kts | 164° |
| 2026-05-06 08:45 | 53.36770 | -6.48344 | 12685 ft | 344 kts | 165° |
| 2026-05-06 08:45 | 53.34470 | -6.47136 | 13479 ft | 349 kts | 165° |
| 2026-05-06 08:45 | 53.32134 | -6.45924 | 14236 ft | 353 kts | 165° |
| 2026-05-06 08:45 | 53.29837 | -6.44383 | 14935 ft | 359 kts | 157° |
| 2026-05-06 08:46 | 53.27558 | -6.42622 | 15660 ft | 362 kts | 157° |
| 2026-05-06 08:46 | 53.25260 | -6.40840 | 16371 ft | 366 kts | 157° |
| 2026-05-06 08:46 | 53.22943 | -6.39041 | 17069 ft | 370 kts | 157° |
| 2026-05-06 08:46 | 53.20599 | -6.37220 | 17771 ft | 373 kts | 157° |
| 2026-05-06 08:47 | 53.18234 | -6.35388 | 18448 ft | 377 kts | 157° |
| 2026-05-06 08:47 | 53.15843 | -6.33541 | 19056 ft | 380 kts | 157° |
| 2026-05-06 08:47 | 53.13432 | -6.31683 | 19637 ft | 384 kts | 157° |
| 2026-05-06 08:47 | 53.10998 | -6.29805 | 20237 ft | 387 kts | 157° |
| 2026-05-06 08:48 | 53.08543 | -6.27915 | 20840 ft | 391 kts | 157° |
| 2026-05-06 08:48 | 53.06062 | -6.26008 | 21431 ft | 394 kts | 157° |
| 2026-05-06 08:48 | 53.03560 | -6.24089 | 22019 ft | 398 kts | 158° |
| 2026-05-06 08:48 | 53.01033 | -6.22154 | 22609 ft | 402 kts | 158° |
| 2026-05-06 08:49 | 52.98481 | -6.20207 | 22972 ft | 405 kts | 158° |
| 2026-05-06 08:49 | 52.95918 | -6.18256 | 23042 ft | 405 kts | 158° |
| 2026-05-06 08:49 | 52.93355 | -6.16302 | 23043 ft | 405 kts | 158° |
| 2026-05-06 08:49 | 52.90796 | -6.14336 | 23043 ft | 405 kts | 157° |
| 2026-05-06 08:50 | 52.88245 | -6.12370 | 23046 ft | 405 kts | 157° |
| 2026-05-06 08:50 | 52.85686 | -6.10399 | 23046 ft | 405 kts | 157° |
| 2026-05-06 08:50 | 52.83132 | -6.08436 | 23043 ft | 405 kts | 157° |
| 2026-05-06 08:50 | 52.80578 | -6.06474 | 23045 ft | 405 kts | 157° |
| 2026-05-06 08:51 | 52.78057 | -6.04542 | 23052 ft | 405 kts | 157° |
| 2026-05-06 08:51 | 52.75502 | -6.02593 | 23046 ft | 405 kts | 157° |
| 2026-05-06 08:51 | 52.72910 | -6.00618 | 23046 ft | 405 kts | 157° |
| 2026-05-06 08:51 | 52.70386 | -5.98698 | 23045 ft | 405 kts | 157° |
| 2026-05-06 08:52 | 52.67837 | -5.96761 | 23042 ft | 405 kts | 157° |
| 2026-05-06 08:52 | 52.65280 | -5.94820 | 23042 ft | 405 kts | 157° |
| 2026-05-06 08:52 | 52.62726 | -5.92885 | 23042 ft | 405 kts | 157° |
| 2026-05-06 08:52 | 52.60169 | -5.90948 | 23042 ft | 404 kts | 157° |
| 2026-05-06 08:53 | 52.57614 | -5.89011 | 23047 ft | 404 kts | 157° |
| 2026-05-06 08:53 | 52.55066 | -5.87081 | 23046 ft | 403 kts | 157° |
| 2026-05-06 08:53 | 52.52516 | -5.85158 | 23047 ft | 403 kts | 157° |
| 2026-05-06 08:53 | 52.49961 | -5.83237 | 23048 ft | 403 kts | 158° |
| 2026-05-06 08:54 | 52.47411 | -5.81318 | 23048 ft | 403 kts | 157° |
| 2026-05-06 08:54 | 52.44859 | -5.79401 | 23045 ft | 404 kts | 157° |
| 2026-05-06 08:54 | 52.42307 | -5.77485 | 23041 ft | 404 kts | 157° |
| 2026-05-06 08:54 | 52.39740 | -5.75648 | 23045 ft | 402 kts | 162° |
| 2026-05-06 08:55 | 52.37081 | -5.74293 | 23042 ft | 401 kts | 166° |
| 2026-05-06 08:55 | 52.34398 | -5.72994 | 23041 ft | 401 kts | 166° |
| 2026-05-06 08:55 | 52.31719 | -5.71698 | 23046 ft | 401 kts | 166° |
| 2026-05-06 08:55 | 52.29045 | -5.70403 | 23043 ft | 401 kts | 166° |
| 2026-05-06 08:56 | 52.26371 | -5.69107 | 23041 ft | 401 kts | 166° |
| 2026-05-06 08:56 | 52.23713 | -5.67731 | 23043 ft | 402 kts | 161° |
| 2026-05-06 08:56 | 52.21121 | -5.65987 | 23043 ft | 402 kts | 159° |
| 2026-05-06 08:56 | 52.18538 | -5.64235 | 23041 ft | 402 kts | 159° |
| 2026-05-06 08:57 | 52.15951 | -5.62484 | 23040 ft | 402 kts | 160° |
| 2026-05-06 08:57 | 52.13364 | -5.60741 | 23034 ft | 402 kts | 159° |
| 2026-05-06 08:57 | 52.10783 | -5.59009 | 23041 ft | 402 kts | 160° |
| 2026-05-06 08:57 | 52.08203 | -5.57264 | 23040 ft | 402 kts | 157° |
| 2026-05-06 08:58 | 52.05759 | -5.55034 | 23043 ft | 404 kts | 147° |
| 2026-05-06 08:58 | 52.03589 | -5.52127 | 23042 ft | 406 kts | 136° |
| 2026-05-06 08:58 | 52.01763 | -5.48627 | 23038 ft | 407 kts | 126° |
| 2026-05-06 08:58 | 52.00215 | -5.44771 | 23038 ft | 408 kts | 123° |
| 2026-05-06 08:59 | 51.98674 | -5.40910 | 23041 ft | 408 kts | 124° |
| 2026-05-06 08:59 | 51.97650 | -5.38354 | 23037 ft | 408 kts | 124° |
| 2026-05-06 08:59 | 51.96099 | -5.34498 | 23034 ft | 408 kts | 124° |
| 2026-05-06 08:59 | 51.94547 | -5.30652 | 23035 ft | 408 kts | 124° |
| 2026-05-06 09:00 | 51.92993 | -5.26802 | 23033 ft | 408 kts | 124° |
| 2026-05-06 09:00 | 51.91259 | -5.23178 | 23036 ft | 407 kts | 134° |
| 2026-05-06 09:00 | 51.89172 | -5.20027 | 23037 ft | 405 kts | 143° |
| 2026-05-06 09:00 | 51.87001 | -5.17227 | 23035 ft | 405 kts | 143° |
| 2026-05-06 09:01 | 51.84763 | -5.14350 | 23034 ft | 405 kts | 143° |
| 2026-05-06 09:01 | 51.82588 | -5.11557 | 23032 ft | 405 kts | 143° |
| 2026-05-06 09:01 | 51.80383 | -5.08729 | 23032 ft | 405 kts | 143° |
| 2026-05-06 09:01 | 51.78179 | -5.05901 | 23029 ft | 405 kts | 143° |
| 2026-05-06 09:02 | 51.75977 | -5.03074 | 23030 ft | 405 kts | 143° |
| 2026-05-06 09:02 | 51.73772 | -5.00245 | 23030 ft | 405 kts | 143° |
| 2026-05-06 09:02 | 51.71570 | -4.97421 | 23030 ft | 405 kts | 143° |
| 2026-05-06 09:02 | 51.69363 | -4.94601 | 23023 ft | 404 kts | 143° |
| 2026-05-06 09:03 | 51.67156 | -4.91788 | 23029 ft | 404 kts | 143° |
| 2026-05-06 09:03 | 51.64951 | -4.88975 | 23029 ft | 404 kts | 143° |
| 2026-05-06 09:03 | 51.62747 | -4.86166 | 23029 ft | 404 kts | 143° |
| 2026-05-06 09:03 | 51.60545 | -4.83360 | 23033 ft | 404 kts | 143° |
| 2026-05-06 09:04 | 51.58340 | -4.80556 | 23026 ft | 403 kts | 143° |
| 2026-05-06 09:04 | 51.56139 | -4.77762 | 23030 ft | 403 kts | 143° |
| 2026-05-06 09:04 | 51.53941 | -4.74976 | 23030 ft | 403 kts | 143° |
| 2026-05-06 09:04 | 51.51739 | -4.72194 | 23030 ft | 403 kts | 143° |
| 2026-05-06 09:05 | 51.49536 | -4.69414 | 23030 ft | 403 kts | 143° |
| 2026-05-06 09:05 | 51.47333 | -4.66639 | 23017 ft | 403 kts | 143° |
| 2026-05-06 09:05 | 51.45135 | -4.63867 | 23030 ft | 402 kts | 143° |
| 2026-05-06 09:05 | 51.42933 | -4.61093 | 23026 ft | 402 kts | 143° |
| 2026-05-06 09:06 | 51.40734 | -4.58331 | 23027 ft | 402 kts | 143° |
| 2026-05-06 09:06 | 51.38533 | -4.55570 | 23027 ft | 402 kts | 143° |
| 2026-05-06 09:06 | 51.36323 | -4.52801 | 23031 ft | 409 kts | 143° |
| 2026-05-06 09:06 | 51.34033 | -4.49936 | 23028 ft | 426 kts | 143° |
| 2026-05-06 09:07 | 51.31653 | -4.46966 | 23024 ft | 441 kts | 143° |
| 2026-05-06 09:07 | 51.29204 | -4.43912 | 23023 ft | 453 kts | 143° |
| 2026-05-06 09:07 | 51.26702 | -4.40790 | 23023 ft | 458 kts | 143° |
| 2026-05-06 09:07 | 51.24187 | -4.37651 | 23014 ft | 460 kts | 143° |
| 2026-05-06 09:08 | 51.21663 | -4.34512 | 23013 ft | 460 kts | 143° |
| 2026-05-06 09:08 | 51.19139 | -4.31381 | 23033 ft | 460 kts | 143° |
| 2026-05-06 09:08 | 51.16615 | -4.28247 | 23032 ft | 460 kts | 143° |
| 2026-05-06 09:08 | 51.14095 | -4.25116 | 23018 ft | 460 kts | 143° |
| 2026-05-06 09:09 | 51.11573 | -4.21987 | 23018 ft | 459 kts | 143° |
| 2026-05-06 09:09 | 51.09056 | -4.18876 | 23016 ft | 459 kts | 143° |
| 2026-05-06 09:09 | 51.06520 | -4.15755 | 23014 ft | 459 kts | 143° |
| 2026-05-06 09:09 | 51.04002 | -4.12662 | 23017 ft | 459 kts | 143° |
| 2026-05-06 09:10 | 51.01472 | -4.09576 | 23026 ft | 459 kts | 145° |
| 2026-05-06 09:10 | 50.98766 | -4.06895 | 23026 ft | 458 kts | 151° |
| 2026-05-06 09:10 | 50.96025 | -4.04328 | 22949 ft | 458 kts | 151° |
| 2026-05-06 09:10 | 50.93272 | -4.01769 | 22894 ft | 458 kts | 151° |
| 2026-05-06 09:11 | 50.90522 | -3.99226 | 22837 ft | 458 kts | 151° |
| 2026-05-06 09:11 | 50.87766 | -3.96682 | 22783 ft | 459 kts | 151° |
| 2026-05-06 09:11 | 50.85008 | -3.94138 | 22739 ft | 459 kts | 151° |
| 2026-05-06 09:11 | 50.82252 | -3.91601 | 22678 ft | 459 kts | 151° |
| 2026-05-06 09:12 | 50.79493 | -3.89065 | 22610 ft | 459 kts | 151° |
| 2026-05-06 09:12 | 50.76733 | -3.86528 | 22558 ft | 459 kts | 151° |
| 2026-05-06 09:12 | 50.73969 | -3.83987 | 22500 ft | 460 kts | 151° |
| 2026-05-06 09:12 | 50.71208 | -3.81451 | 22443 ft | 460 kts | 151° |
| 2026-05-06 09:13 | 50.68443 | -3.78917 | 22391 ft | 459 kts | 151° |
| 2026-05-06 09:13 | 50.65677 | -3.76387 | 22337 ft | 459 kts | 151° |
| 2026-05-06 09:13 | 50.62911 | -3.73856 | 22288 ft | 459 kts | 151° |
| 2026-05-06 09:13 | 50.60149 | -3.71332 | 22206 ft | 460 kts | 151° |
| 2026-05-06 09:14 | 50.57378 | -3.68807 | 22119 ft | 461 kts | 151° |
| 2026-05-06 09:14 | 50.54606 | -3.66287 | 22038 ft | 461 kts | 151° |
| 2026-05-06 09:14 | 50.51822 | -3.63760 | 21949 ft | 462 kts | 151° |
| 2026-05-06 09:14 | 50.49036 | -3.61236 | 21883 ft | 462 kts | 151° |
| 2026-05-06 09:15 | 50.46255 | -3.58717 | 21797 ft | 462 kts | 151° |
| 2026-05-06 09:15 | 50.43474 | -3.56198 | 21713 ft | 462 kts | 151° |
| 2026-05-06 09:15 | 50.40680 | -3.53675 | 21634 ft | 463 kts | 152° |
| 2026-05-06 09:15 | 50.37882 | -3.51153 | 21551 ft | 464 kts | 151° |
| 2026-05-06 09:16 | 50.35086 | -3.48635 | 21473 ft | 464 kts | 152° |
| 2026-05-06 09:16 | 50.32285 | -3.46111 | 21395 ft | 464 kts | 151° |
| 2026-05-06 09:16 | 50.29485 | -3.43590 | 21316 ft | 465 kts | 152° |
| 2026-05-06 09:16 | 50.26686 | -3.41073 | 21250 ft | 464 kts | 151° |
| 2026-05-06 09:17 | 50.23923 | -3.38597 | 21221 ft | 463 kts | 151° |
| 2026-05-06 09:17 | 50.21122 | -3.36093 | 21154 ft | 465 kts | 152° |
| 2026-05-06 09:17 | 50.18311 | -3.33585 | 20961 ft | 465 kts | 152° |
| 2026-05-06 09:17 | 50.15512 | -3.31092 | 20909 ft | 462 kts | 151° |
| 2026-05-06 09:18 | 50.12733 | -3.28619 | 19864 ft | 459 kts | 152° |
| 2026-05-06 09:18 | 50.09948 | -3.26141 | 18790 ft | 461 kts | 151° |
| 2026-05-06 09:18 | 50.07169 | -3.23670 | 17993 ft | 457 kts | 151° |
| 2026-05-06 09:18 | 50.04423 | -3.21235 | 17139 ft | 452 kts | 151° |
| 2026-05-06 09:19 | 50.01716 | -3.18836 | 16457 ft | 443 kts | 151° |
| 2026-05-06 09:19 | 49.99094 | -3.16481 | 16048 ft | 430 kts | 150° |
| 2026-05-06 09:19 | 49.96583 | -3.14056 | 15610 ft | 419 kts | 148° |
| 2026-05-06 09:19 | 49.94170 | -3.11584 | 15120 ft | 412 kts | 147° |
| 2026-05-06 09:20 | 49.91816 | -3.09103 | 14651 ft | 405 kts | 146° |
| 2026-05-06 09:20 | 49.89511 | -3.06668 | 14173 ft | 398 kts | 146° |
| 2026-05-06 09:20 | 49.87232 | -3.04282 | 13721 ft | 391 kts | 147° |
| 2026-05-06 09:20 | 49.84993 | -3.01965 | 13212 ft | 384 kts | 147° |
| 2026-05-06 09:21 | 49.82819 | -2.99737 | 12703 ft | 363 kts | 147° |
| 2026-05-06 09:21 | 49.80764 | -2.97645 | 12214 ft | 344 kts | 147° |
| 2026-05-06 09:21 | 49.78811 | -2.95668 | 11728 ft | 328 kts | 148° |
| 2026-05-06 09:21 | 49.76936 | -2.93778 | 11246 ft | 317 kts | 148° |
| 2026-05-06 09:22 | 49.75106 | -2.91935 | 10773 ft | 311 kts | 148° |
| 2026-05-06 09:22 | 49.73297 | -2.90112 | 10313 ft | 311 kts | 148° |
| 2026-05-06 09:22 | 49.71451 | -2.88372 | 9836 ft | 311 kts | 150° |
| 2026-05-06 09:22 | 49.69595 | -2.86689 | 9293 ft | 305 kts | 150° |
| 2026-05-06 09:23 | 49.67786 | -2.85099 | 8746 ft | 294 kts | 150° |
| 2026-05-06 09:23 | 49.66032 | -2.83568 | 8144 ft | 285 kts | 150° |
| 2026-05-06 09:23 | 49.64320 | -2.82077 | 7573 ft | 280 kts | 150° |
| 2026-05-06 09:23 | 49.62630 | -2.80609 | 7195 ft | 278 kts | 150° |
| 2026-05-06 09:24 | 49.60950 | -2.79150 | 6820 ft | 276 kts | 150° |
| 2026-05-06 09:24 | 49.59284 | -2.77706 | 6450 ft | 274 kts | 150° |
| 2026-05-06 09:24 | 49.57629 | -2.76273 | 6066 ft | 272 kts | 150° |
| 2026-05-06 09:24 | 49.55988 | -2.74857 | 5974 ft | 270 kts | 150° |
| 2026-05-06 09:25 | 49.54342 | -2.73441 | 5972 ft | 272 kts | 150° |
| 2026-05-06 09:25 | 49.52690 | -2.72022 | 5977 ft | 272 kts | 150° |
| 2026-05-06 09:25 | 49.51037 | -2.70602 | 5976 ft | 272 kts | 150° |
| 2026-05-06 09:25 | 49.49385 | -2.69183 | 5974 ft | 272 kts | 150° |
| 2026-05-06 09:26 | 49.47728 | -2.67764 | 5977 ft | 273 kts | 150° |
| 2026-05-06 09:26 | 49.46069 | -2.66351 | 5977 ft | 273 kts | 150° |
| 2026-05-06 09:26 | 49.44407 | -2.64938 | 5972 ft | 273 kts | 150° |
| 2026-05-06 09:26 | 49.42745 | -2.63522 | 5956 ft | 272 kts | 150° |
| 2026-05-06 09:27 | 49.41100 | -2.62121 | 5577 ft | 269 kts | 150° |
| 2026-05-06 09:27 | 49.39499 | -2.60760 | 5433 ft | 257 kts | 150° |
| 2026-05-06 09:27 | 49.37958 | -2.59452 | 5135 ft | 251 kts | 150° |
| 2026-05-06 09:27 | 49.36441 | -2.58166 | 4829 ft | 247 kts | 150° |
| 2026-05-06 09:28 | 49.34954 | -2.56907 | 4516 ft | 242 kts | 150° |
| 2026-05-06 09:28 | 49.33492 | -2.55672 | 4202 ft | 238 kts | 150° |
| 2026-05-06 09:28 | 49.32051 | -2.54458 | 3901 ft | 234 kts | 150° |
| 2026-05-06 09:28 | 49.30637 | -2.53270 | 3695 ft | 231 kts | 150° |
| 2026-05-06 09:29 | 49.29228 | -2.52090 | 3493 ft | 230 kts | 150° |
| 2026-05-06 09:29 | 49.27825 | -2.50917 | 3287 ft | 229 kts | 150° |
| 2026-05-06 09:29 | 49.26425 | -2.49747 | 3099 ft | 229 kts | 150° |
| 2026-05-06 09:29 | 49.25028 | -2.48584 | 2918 ft | 228 kts | 150° |
| 2026-05-06 09:30 | 49.23644 | -2.47417 | 2740 ft | 224 kts | 146° |
| 2026-05-06 09:30 | 49.22581 | -2.45784 | 2562 ft | 214 kts | 124° |
| 2026-05-06 09:30 | 49.21770 | -2.43894 | 2411 ft | 211 kts | 121° |
| 2026-05-06 09:30 | 49.20994 | -2.41999 | 2252 ft | 209 kts | 121° |
| 2026-05-06 09:31 | 49.20231 | -2.40128 | 2116 ft | 204 kts | 121° |
| 2026-05-06 09:31 | 49.19566 | -2.38259 | 2024 ft | 196 kts | 107° |
| 2026-05-06 09:31 | 49.19392 | -2.36255 | 2006 ft | 187 kts | 85° |
| 2026-05-06 09:31 | 49.19548 | -2.34354 | 2005 ft | 175 kts | 83° |
| 2026-05-06 09:32 | 49.19702 | -2.32545 | 1831 ft | 166 kts | 83° |
| 2026-05-06 09:32 | 49.19845 | -2.30856 | 1642 ft | 154 kts | 83° |
| 2026-05-06 09:32 | 49.19979 | -2.29268 | 1437 ft | 148 kts | 83° |
| 2026-05-06 09:32 | 49.20109 | -2.27722 | 1243 ft | 145 kts | 83° |
| 2026-05-06 09:33 | 49.20243 | -2.26201 | 1018 ft | 143 kts | 82° |
| 2026-05-06 09:33 | 49.20380 | -2.24744 | 846 ft | 136 kts | 82° |
| 2026-05-06 09:33 | 49.20484 | -2.23332 | 685 ft | 132 kts | 84° |
| 2026-05-06 09:33 | 49.20592 | -2.21934 | 469 ft | 131 kts | 82° |
| 2026-05-06 09:34 | 49.20715 | -2.20534 | 305 ft | 132 kts | 81° |
| 2026-05-06 09:34 | 49.20823 | -2.19264 | 286 ft | 99 kts | 83° |
| 2026-05-06 09:34 | 49.20882 | -2.18567 | 282 ft | 37 kts | 82° |
| 2026-05-06 09:34 | 49.20809 | -2.18378 | 284 ft | 22 kts | 187° |
| 2026-05-06 09:35 | 49.20732 | -2.18517 | 284 ft | 15 kts | 263° |
| 2026-05-06 09:35 | 49.20721 | -2.18667 | 284 ft | 14 kts | 263° |
| 2026-05-06 09:35 | 49.20709 | -2.18811 | 284 ft | 13 kts | 262° |
| 2026-05-06 09:35 | 49.20697 | -2.18944 | 284 ft | 12 kts | 263° |
| 2026-05-06 09:36 | 49.20687 | -2.19067 | 284 ft | 12 kts | 263° |
| 2026-05-06 09:36 | 49.20680 | -2.19186 | 284 ft | 11 kts | 273° |
| 2026-05-06 09:36 | 49.20696 | -2.19296 | 284 ft | 10 kts | 284° |
| 2026-05-06 09:36 | 49.20709 | -2.19395 | 284 ft | 9 kts | 274° |
| 2026-05-06 09:37 | 49.20703 | -2.19491 | 284 ft | 9 kts | 261° |
| 2026-05-06 09:37 | 49.20693 | -2.19580 | 284 ft | 8 kts | 256° |
| 2026-05-06 09:37 | 49.20659 | -2.19652 | 284 ft | 11 kts | 217° |
| 2026-05-06 09:37 | 49.20614 | -2.19747 | 284 ft | 11 kts | 262° |
| 2026-05-06 09:38 | 49.20605 | -2.19860 | 288 ft | 10 kts | 255° |
| 2026-05-06 09:38 | 49.20570 | -2.19865 | 284 ft | 5 kts | 172° |
| 2026-05-06 09:38 | 49.20543 | -2.19860 | 284 ft | 2 kts | 174° |
| 2026-05-06 09:38 | 49.20541 | -2.19860 | 284 ft | 0 kts | 174° |